Check out our new BloomSky Weather System.

Active alerts


No alerts


Thunder radar  blitzortung!


Rain radar more information rain snow radar


Visit our other weather sites:

Template documentation
and downloads

And another site



Weather Underground History page Text

Daily Summary for July 14, 2017 Units:  English    Metric   Both
« Previous Day
Next Day »
Daily Weekly Monthly Yearly Custom
  High: Low: Average:
Temperature: 97.0 °F 75.9 °F 86.1 °F
Dew Point: 81.7 °F 72.5 °F 76.7 °F
Humidity: 98 % 48 % 76 %
Wind Speed: 9.0 mph 0.0 mph 1.3 mph
Wind Gust: 14.0 mph - -
Wind:- - SSW
Pressure: 30.11 in 30.00 in -
Precipitation: 0.00 in    
Historical Graphs
 
 
Tabular Data for July 14, 2017
Time Temperature Dew Point Pressure Wind Wind Speed Wind Gust Humidity Rainfall Rate (Hourly)
00:02 80.1 °F 76.5 °F 30.07 in Calm   1.0 mph 89 % 0.00 in
00:07 80.1 °F 76.5 °F 30.08 in Calm   1.0 mph 89 % 0.00 in
00:12 80.1 °F 76.5 °F 30.08 in Calm   2.0 mph 89 % 0.00 in
00:18 79.9 °F 75.9 °F 30.08 in Calm   2.0 mph 88 % 0.00 in
00:23 79.9 °F 76.3 °F 30.08 in Calm   2.0 mph 89 % 0.00 in
00:28 79.5 °F 75.9 °F 30.08 in Calm   1.0 mph 89 % 0.00 in
00:33 79.5 °F 75.9 °F 30.08 in Calm     89 % 0.00 in
00:38 79.3 °F 76.1 °F 30.08 in Calm     90 % 0.00 in
00:43 79.5 °F 76.6 °F 30.08 in SSE 1.0 mph 1.0 mph 91 % 0.00 in
00:48 79.5 °F 76.6 °F 30.08 in SSW 1.0 mph 2.0 mph 91 % 0.00 in
00:53 79.5 °F 76.3 °F 30.08 in Calm   2.0 mph 90 % 0.00 in
00:58 79.5 °F 76.6 °F 30.08 in South 1.0 mph 2.0 mph 91 % 0.00 in
00:59 79.5 °F 76.6 °F 30.08 in Calm   2.0 mph 91 % 0.00 in
01:04 79.5 °F 76.6 °F 30.08 in Calm   2.0 mph 91 % 0.00 in
01:09 79.3 °F 76.1 °F 30.08 in South 1.0 mph 1.0 mph 90 % 0.00 in
01:14 79.3 °F 76.5 °F 30.08 in SSW 2.0 mph 2.0 mph 91 % 0.00 in
01:19 79.3 °F 76.5 °F 30.08 in SSE 1.0 mph 2.0 mph 91 % 0.00 in
01:24 79.5 °F 76.6 °F 30.08 in Calm   2.0 mph 91 % 0.00 in
01:29 79.3 °F 76.1 °F 30.08 in Calm   2.0 mph 90 % 0.00 in
01:34 79.2 °F 75.9 °F 30.08 in Calm   2.0 mph 90 % 0.00 in
01:39 79.0 °F 75.7 °F 30.08 in Calm   2.0 mph 90 % 0.00 in
01:44 79.0 °F 76.1 °F 30.08 in Calm     91 % 0.00 in
01:49 79.0 °F 76.1 °F 30.08 in Calm     91 % 0.00 in
01:54 78.8 °F 75.9 °F 30.07 in Calm     91 % 0.00 in
01:59 78.8 °F 76.3 °F 30.07 in Calm     92 % 0.00 in
02:04 78.6 °F 75.7 °F 30.07 in Calm   1.0 mph 91 % 0.00 in
02:09 78.6 °F 76.1 °F 30.07 in Calm   1.0 mph 92 % 0.00 in
02:14 78.6 °F 76.1 °F 30.07 in Calm   1.0 mph 92 % 0.00 in
02:19 78.4 °F 75.9 °F 30.07 in Calm     92 % 0.00 in
02:24 78.4 °F 75.9 °F 30.07 in Calm     92 % 0.00 in
02:29 78.3 °F 75.7 °F 30.07 in Calm     92 % 0.00 in
02:34 78.1 °F 75.6 °F 30.07 in Calm     92 % 0.00 in
02:39 78.1 °F 75.6 °F 30.07 in Calm     92 % 0.00 in
02:44 77.9 °F 75.4 °F 30.07 in Calm     92 % 0.00 in
02:49 77.7 °F 75.6 °F 30.07 in Calm     93 % 0.00 in
02:54 77.7 °F 75.6 °F 30.07 in Calm     93 % 0.00 in
02:59 77.7 °F 75.6 °F 30.07 in Calm     93 % 0.00 in
03:04 77.5 °F 75.4 °F 30.07 in Calm     93 % 0.00 in
03:09 77.5 °F 75.4 °F 30.07 in Calm     93 % 0.00 in
03:14 77.5 °F 75.7 °F 30.07 in Calm     94 % 0.00 in
03:19 77.4 °F 75.6 °F 30.07 in Calm     94 % 0.00 in
03:24 77.4 °F 75.6 °F 30.07 in Calm     94 % 0.00 in
03:29 77.4 °F 75.6 °F 30.07 in Calm     94 % 0.00 in
03:34 77.2 °F 75.4 °F 30.07 in Calm     94 % 0.00 in
03:39 77.2 °F 75.4 °F 30.07 in Calm     94 % 0.00 in
03:44 77.0 °F 75.2 °F 30.07 in Calm     94 % 0.00 in
03:49 76.8 °F 75.0 °F 30.07 in Calm     94 % 0.00 in
03:54 77.2 °F 75.6 °F 30.07 in Calm     95 % 0.00 in
03:59 77.0 °F 75.4 °F 30.07 in Calm     95 % 0.00 in
04:04 76.8 °F 75.2 °F 30.07 in Calm     95 % 0.00 in
04:09 77.0 °F 75.4 °F 30.07 in Calm     95 % 0.00 in
04:14 76.8 °F 75.2 °F 30.07 in Calm     95 % 0.00 in
04:19 76.6 °F 75.0 °F 30.07 in Calm     95 % 0.00 in
04:24 76.5 °F 74.8 °F 30.06 in Calm     95 % 0.00 in
04:29 76.5 °F 74.8 °F 30.06 in Calm     95 % 0.00 in
04:34 76.3 °F 74.7 °F 30.06 in Calm     95 % 0.00 in
04:39 76.5 °F 75.2 °F 30.06 in Calm     96 % 0.00 in
04:44 76.5 °F 75.2 °F 30.06 in Calm     96 % 0.00 in
04:49 76.5 °F 75.2 °F 30.07 in Calm     96 % 0.00 in
04:54 76.5 °F 75.2 °F 30.07 in Calm     96 % 0.00 in
04:59 76.5 °F 75.2 °F 30.07 in Calm     96 % 0.00 in
05:04 76.5 °F 75.2 °F 30.07 in Calm     96 % 0.00 in
05:09 76.6 °F 75.4 °F 30.07 in Calm     96 % 0.00 in
05:14 76.5 °F 75.2 °F 30.07 in Calm     96 % 0.00 in
05:19 76.5 °F 75.2 °F 30.07 in Calm     96 % 0.00 in
05:24 76.3 °F 75.0 °F 30.07 in Calm     96 % 0.00 in
05:29 76.3 °F 75.0 °F 30.07 in Calm     96 % 0.00 in
05:34 76.3 °F 75.0 °F 30.08 in Calm     96 % 0.00 in
05:39 76.3 °F 75.0 °F 30.08 in Calm     96 % 0.00 in
05:44 76.3 °F 75.0 °F 30.08 in Calm     96 % 0.00 in
05:49 76.3 °F 75.0 °F 30.08 in Calm     96 % 0.00 in
05:54 76.3 °F 75.0 °F 30.08 in Calm     96 % 0.00 in
06:00 76.3 °F 75.0 °F 30.09 in Calm     96 % 0.00 in
06:05 76.3 °F 75.4 °F 30.09 in Calm     97 % 0.00 in
06:10 76.3 °F 75.4 °F 30.09 in Calm     97 % 0.00 in
06:15 76.5 °F 75.6 °F 30.09 in Calm     97 % 0.00 in
06:20 76.3 °F 75.4 °F 30.09 in Calm     97 % 0.00 in
06:25 76.3 °F 75.4 °F 30.09 in Calm     97 % 0.00 in
06:30 76.3 °F 75.4 °F 30.09 in Calm     97 % 0.00 in
06:35 76.1 °F 75.2 °F 30.09 in Calm     97 % 0.00 in
06:40 76.1 °F 75.2 °F 30.09 in Calm     97 % 0.00 in
06:45 75.9 °F 75.0 °F 30.09 in Calm     97 % 0.00 in
06:50 75.9 °F 75.0 °F 30.09 in Calm     97 % 0.00 in
06:55 76.3 °F 75.4 °F 30.10 in Calm     97 % 0.00 in
07:00 76.3 °F 75.4 °F 30.10 in Calm     97 % 0.00 in
07:05 76.5 °F 75.6 °F 30.10 in Calm     97 % 0.00 in
07:10 76.6 °F 75.7 °F 30.10 in Calm     97 % 0.00 in
07:15 76.8 °F 75.9 °F 30.10 in Calm     97 % 0.00 in
07:20 77.4 °F 76.5 °F 30.10 in Calm     97 % 0.00 in
07:25 78.3 °F 77.7 °F 30.10 in Calm     98 % 0.00 in
07:30 79.0 °F 78.1 °F 30.10 in Calm     97 % 0.00 in
07:35 79.5 °F 78.6 °F 30.10 in Calm     97 % 0.00 in
07:40 80.1 °F 79.2 °F 30.10 in Calm     97 % 0.00 in
07:45 80.8 °F 79.9 °F 30.10 in Calm     97 % 0.00 in
07:50 81.1 °F 79.5 °F 30.10 in Calm     95 % 0.00 in
07:55 81.3 °F 79.7 °F 30.10 in Calm     95 % 0.00 in
08:00 82.2 °F 80.2 °F 30.10 in Calm     94 % 0.00 in
08:05 83.3 °F 81.3 °F 30.10 in Calm     94 % 0.00 in
08:10 84.0 °F 81.1 °F 30.10 in Calm     91 % 0.00 in
08:15 84.9 °F 81.7 °F 30.10 in Calm     90 % 0.00 in
08:20 85.5 °F 80.8 °F 30.10 in Calm     86 % 0.00 in
08:21 85.5 °F 80.4 °F 30.10 in Calm     85 % 0.00 in
08:26 85.8 °F 80.4 °F 30.10 in Calm   1.0 mph 84 % 0.00 in
08:31 86.2 °F 79.7 °F 30.10 in Calm   1.0 mph 81 % 0.00 in
08:36 86.5 °F 80.1 °F 30.10 in Calm   1.0 mph 81 % 0.00 in
08:41 87.1 °F 79.7 °F 30.10 in SE 1.0 mph 1.0 mph 79 % 0.00 in
08:46 87.1 °F 79.0 °F 30.11 in Calm   1.0 mph 77 % 0.00 in
08:51 87.1 °F 79.0 °F 30.11 in Calm   1.0 mph 77 % 0.00 in
08:56 87.3 °F 79.9 °F 30.11 in Calm   1.0 mph 79 % 0.00 in
09:01 86.9 °F 78.8 °F 30.11 in WNW 2.0 mph 3.0 mph 77 % 0.00 in
09:07 86.7 °F 79.0 °F 30.11 in Calm   3.0 mph 78 % 0.00 in
09:12 87.3 °F 79.2 °F 30.11 in Calm   3.0 mph 77 % 0.00 in
09:17 87.6 °F 79.2 °F 30.11 in Calm   2.0 mph 76 % 0.00 in
09:22 87.8 °F 78.8 °F 30.11 in Calm   2.0 mph 75 % 0.00 in
09:27 88.0 °F 79.9 °F 30.11 in SSW 2.0 mph 4.0 mph 77 % 0.00 in
09:32 88.0 °F 79.0 °F 30.11 in WNW 2.0 mph 4.0 mph 75 % 0.00 in
09:37 87.4 °F 78.6 °F 30.10 in NW 1.0 mph 4.0 mph 75 % 0.00 in
09:42 87.1 °F 79.0 °F 30.10 in Calm   4.0 mph 77 % 0.00 in
09:47 88.0 °F 80.2 °F 30.10 in West 1.0 mph 4.0 mph 78 % 0.00 in
09:52 88.7 °F 79.7 °F 30.10 in Calm   4.0 mph 75 % 0.00 in
09:57 88.9 °F 78.3 °F 30.10 in Calm   3.0 mph 71 % 0.00 in
10:02 88.9 °F 79.5 °F 30.10 in Calm   5.0 mph 74 % 0.00 in
10:07 89.2 °F 78.6 °F 30.10 in Calm   5.0 mph 71 % 0.00 in
10:12 89.2 °F 78.6 °F 30.10 in Calm   5.0 mph 71 % 0.00 in
10:17 90.1 °F 79.5 °F 30.10 in Calm   3.0 mph 71 % 0.00 in
10:22 90.7 °F 78.3 °F 30.10 in NW 2.0 mph 3.0 mph 67 % 0.00 in
10:27 90.0 °F 76.6 °F 30.10 in West 2.0 mph 4.0 mph 65 % 0.00 in
10:32 89.2 °F 77.4 °F 30.10 in SW 1.0 mph 5.0 mph 68 % 0.00 in
10:37 88.5 °F 76.1 °F 30.10 in Calm   5.0 mph 67 % 0.00 in
10:42 89.2 °F 77.4 °F 30.10 in SSW 1.0 mph 5.0 mph 68 % 0.00 in
10:47 89.8 °F 77.4 °F 30.10 in NNW 4.0 mph 4.0 mph 67 % 0.00 in
10:52 89.8 °F 77.7 °F 30.10 in Calm   6.0 mph 68 % 0.00 in
10:57 90.1 °F 78.1 °F 30.10 in NW 2.0 mph 6.0 mph 68 % 0.00 in
11:02 90.1 °F 76.3 °F 30.10 in NNW 3.0 mph 6.0 mph 64 % 0.00 in
11:07 90.3 °F 77.0 °F 30.10 in Calm   6.0 mph 65 % 0.00 in
11:12 90.7 °F 76.8 °F 30.10 in North 2.0 mph 6.0 mph 64 % 0.00 in
11:17 91.0 °F 77.2 °F 30.10 in NW 2.0 mph 6.0 mph 64 % 0.00 in
11:22 91.2 °F 77.7 °F 30.09 in NW 3.0 mph 4.0 mph 65 % 0.00 in
11:27 90.7 °F 76.8 °F 30.09 in NW 2.0 mph 7.0 mph 64 % 0.00 in
11:32 90.1 °F 78.1 °F 30.09 in SSE 2.0 mph 7.0 mph 68 % 0.00 in
11:37 90.9 °F 78.8 °F 30.09 in Calm   7.0 mph 68 % 0.00 in
11:42 91.2 °F 76.8 °F 30.09 in NW 1.0 mph 5.0 mph 63 % 0.00 in
11:47 90.7 °F 76.3 °F 30.09 in Calm   5.0 mph 63 % 0.00 in
11:52 90.9 °F 77.9 °F 30.09 in Calm   5.0 mph 66 % 0.00 in
11:57 91.2 °F 77.4 °F 30.09 in Calm   4.0 mph 64 % 0.00 in
12:02 90.7 °F 75.4 °F 30.09 in WNW 3.0 mph 5.0 mph 61 % 0.00 in
12:07 90.5 °F 75.2 °F 30.09 in WNW 5.0 mph 5.0 mph 61 % 0.00 in
12:12 91.0 °F 78.1 °F 30.09 in NNW 3.0 mph 5.0 mph 66 % 0.00 in
12:17 91.8 °F 76.5 °F 30.09 in WSW 1.0 mph 5.0 mph 61 % 0.00 in
12:22 92.5 °F 77.0 °F 30.09 in Calm   5.0 mph 61 % 0.00 in
12:27 92.7 °F 76.3 °F 30.09 in NW 3.0 mph 5.0 mph 59 % 0.00 in
12:32 93.4 °F 78.4 °F 30.08 in SSE 1.0 mph 5.0 mph 62 % 0.00 in
12:37 94.5 °F 79.0 °F 30.08 in ESE 2.0 mph 6.0 mph 61 % 0.00 in
12:42 94.6 °F 77.5 °F 30.08 in NNW 1.0 mph 6.0 mph 58 % 0.00 in
12:47 93.7 °F 76.6 °F 30.09 in WSW 1.0 mph 6.0 mph 58 % 0.00 in
12:52 92.5 °F 76.1 °F 30.08 in Calm   6.0 mph 59 % 0.00 in
12:57 92.5 °F 77.0 °F 30.08 in NNW 4.0 mph 7.0 mph 61 % 0.00 in
13:02 92.8 °F 77.9 °F 30.08 in NW 3.0 mph 7.0 mph 62 % 0.00 in
13:07 92.7 °F 77.2 °F 30.08 in WNW 1.0 mph 7.0 mph 61 % 0.00 in
13:12 93.0 °F 76.6 °F 30.07 in NNW 4.0 mph 7.0 mph 59 % 0.00 in
13:17 93.7 °F 77.2 °F 30.07 in NW 3.0 mph 6.0 mph 59 % 0.00 in
13:22 93.9 °F 77.9 °F 30.07 in NW 4.0 mph 6.0 mph 60 % 0.00 in
13:27 93.7 °F 77.2 °F 30.07 in NNW 3.0 mph 6.0 mph 59 % 0.00 in
13:32 93.7 °F 76.6 °F 30.07 in NNE 5.0 mph 6.0 mph 58 % 0.00 in
13:37 93.6 °F 77.0 °F 30.07 in North 1.0 mph 7.0 mph 59 % 0.00 in
13:42 94.1 °F 77.5 °F 30.07 in NNW 1.0 mph 7.0 mph 59 % 0.00 in
13:47 94.8 °F 76.6 °F 30.06 in East 1.0 mph 7.0 mph 56 % 0.00 in
13:52 95.2 °F 77.0 °F 30.06 in NNE 5.0 mph 5.0 mph 56 % 0.00 in
13:57 94.6 °F 77.0 °F 30.06 in NNW 2.0 mph 7.0 mph 57 % 0.00 in
14:02 95.2 °F 77.0 °F 30.06 in WNW 2.0 mph 7.0 mph 56 % 0.00 in
14:07 94.5 °F 76.3 °F 30.06 in West 1.0 mph 7.0 mph 56 % 0.00 in
14:12 94.5 °F 76.3 °F 30.06 in NW 4.0 mph 7.0 mph 56 % 0.00 in
14:17 94.6 °F 77.5 °F 30.06 in Calm   7.0 mph 58 % 0.00 in
14:22 95.2 °F 75.4 °F 30.06 in WNW 1.0 mph 7.0 mph 53 % 0.00 in
14:27 95.9 °F 75.9 °F 30.06 in NW 1.0 mph 7.0 mph 53 % 0.00 in
14:32 95.5 °F 75.0 °F 30.05 in Calm   5.0 mph 52 % 0.00 in
14:37 94.6 °F 74.3 °F 30.05 in NNW 1.0 mph 5.0 mph 52 % 0.00 in
14:42 94.6 °F 75.4 °F 30.05 in SE 3.0 mph 5.0 mph 54 % 0.00 in
14:47 94.6 °F 77.0 °F 30.05 in NE 1.0 mph 5.0 mph 57 % 0.00 in
14:52 95.2 °F 74.8 °F 30.04 in ENE 4.0 mph 5.0 mph 52 % 0.00 in
14:57 94.8 °F 75.0 °F 30.04 in East 2.0 mph 7.0 mph 53 % 0.00 in
15:02 95.4 °F 74.3 °F 30.04 in East 4.0 mph 7.0 mph 51 % 0.00 in
15:07 95.4 °F 76.1 °F 30.04 in SE 5.0 mph 7.0 mph 54 % 0.00 in
15:12 95.2 °F 75.4 °F 30.04 in ENE 2.0 mph 5.0 mph 53 % 0.00 in
15:17 94.8 °F 75.6 °F 30.04 in NW 2.0 mph 5.0 mph 54 % 0.00 in
15:22 94.5 °F 76.8 °F 30.04 in Calm   5.0 mph 57 % 0.00 in
15:27 94.3 °F 76.1 °F 30.03 in North 3.0 mph 9.0 mph 56 % 0.00 in
15:32 94.3 °F 75.6 °F 30.03 in WNW 4.0 mph 9.0 mph 55 % 0.00 in
15:37 94.5 °F 75.7 °F 30.03 in NW 3.0 mph 9.0 mph 55 % 0.00 in
15:42 94.6 °F 74.3 °F 30.03 in WNW 1.0 mph 7.0 mph 52 % 0.00 in
15:47 95.0 °F 74.7 °F 30.02 in ESE 3.0 mph 7.0 mph 52 % 0.00 in
15:52 95.5 °F 75.0 °F 30.03 in Calm   7.0 mph 52 % 0.00 in
15:57 96.3 °F 75.2 °F 30.03 in East 2.0 mph 7.0 mph 51 % 0.00 in
16:02 96.3 °F 76.8 °F 30.03 in ESE 3.0 mph 7.0 mph 54 % 0.00 in
16:07 96.3 °F 76.3 °F 30.03 in NNE 1.0 mph 6.0 mph 53 % 0.00 in
16:12 96.3 °F 75.7 °F 30.03 in East 3.0 mph 6.0 mph 52 % 0.00 in
16:17 96.4 °F 77.5 °F 30.02 in Calm   6.0 mph 55 % 0.00 in
16:22 96.4 °F 74.8 °F 30.02 in WNW 3.0 mph 5.0 mph 50 % 0.00 in
16:27 96.3 °F 76.8 °F 30.02 in Calm   5.0 mph 54 % 0.00 in
16:32 97.0 °F 77.0 °F 30.02 in Calm   5.0 mph 53 % 0.00 in
16:37 97.0 °F 76.5 °F 30.02 in East 6.0 mph 6.0 mph 52 % 0.00 in
16:42 96.6 °F 75.6 °F 30.02 in Calm   7.0 mph 51 % 0.00 in
16:47 95.7 °F 75.2 °F 30.02 in NNW 6.0 mph 7.0 mph 52 % 0.00 in
16:52 95.7 °F 75.2 °F 30.02 in NW 2.0 mph 7.0 mph 52 % 0.00 in
16:53 95.7 °F 75.9 °F 30.01 in Calm   7.0 mph 53 % 0.00 in
16:58 96.1 °F 75.0 °F 30.01 in NNW 2.0 mph 6.0 mph 51 % 0.00 in
17:04 96.1 °F 75.0 °F 30.01 in NE 1.0 mph 6.0 mph 51 % 0.00 in
17:09 96.4 °F 75.4 °F 30.01 in East 2.0 mph 4.0 mph 51 % 0.00 in
17:13 96.4 °F 74.8 °F 30.01 in NNW 3.0 mph 4.0 mph 50 % 0.00 in
17:18 96.4 °F 75.4 °F 30.01 in WNW 2.0 mph 6.0 mph 51 % 0.00 in
17:23 96.4 °F 75.4 °F 30.01 in ENE 4.0 mph 6.0 mph 51 % 0.00 in
17:28 95.9 °F 74.3 °F 30.01 in NNE 1.0 mph 6.0 mph 50 % 0.00 in
17:33 96.1 °F 75.0 °F 30.01 in NNW 1.0 mph 6.0 mph 51 % 0.00 in
17:38 95.7 °F 74.1 °F 30.01 in SSE 3.0 mph 6.0 mph 50 % 0.00 in
17:43 95.7 °F 74.7 °F 30.01 in NNW 2.0 mph 6.0 mph 51 % 0.00 in
17:48 95.5 °F 73.9 °F 30.01 in Calm   6.0 mph 50 % 0.00 in
17:54 95.2 °F 73.6 °F 30.00 in East 2.0 mph 6.0 mph 50 % 0.00 in
17:58 95.4 °F 75.6 °F 30.00 in Calm   5.0 mph 53 % 0.00 in
18:03 95.5 °F 74.5 °F 30.00 in ESE 4.0 mph 5.0 mph 51 % 0.00 in
18:09 95.4 °F 73.8 °F 30.00 in ESE 1.0 mph 6.0 mph 50 % 0.00 in
18:14 95.4 °F 72.5 °F 30.00 in ESE 3.0 mph 6.0 mph 48 % 0.00 in
18:19 95.2 °F 73.6 °F 30.00 in SSW 2.0 mph 8.0 mph 50 % 0.00 in
18:24 94.5 °F 78.4 °F 30.00 in ESE 5.0 mph 12.0 mph 60 % 0.00 in
18:29 93.2 °F 79.2 °F 30.00 in ESE 2.0 mph 14.0 mph 64 % 0.00 in
18:34 92.7 °F 79.2 °F 30.00 in SSE 7.0 mph 14.0 mph 65 % 0.00 in
18:39 92.5 °F 79.0 °F 30.00 in East 6.0 mph 14.0 mph 65 % 0.00 in
18:44 91.6 °F 78.6 °F 30.01 in SE 7.0 mph 10.0 mph 66 % 0.00 in
18:49 91.0 °F 79.0 °F 30.01 in East 5.0 mph 10.0 mph 68 % 0.00 in
18:54 91.0 °F 79.0 °F 30.00 in ENE 2.0 mph 10.0 mph 68 % 0.00 in
18:59 90.9 °F 78.8 °F 30.01 in SE 4.0 mph 10.0 mph 68 % 0.00 in
19:04 90.5 °F 78.4 °F 30.01 in SSE 7.0 mph 10.0 mph 68 % 0.00 in
19:09 90.1 °F 78.1 °F 30.01 in SE 3.0 mph 11.0 mph 68 % 0.00 in
19:14 90.1 °F 78.1 °F 30.01 in South 6.0 mph 11.0 mph 68 % 0.00 in
19:19 90.1 °F 78.1 °F 30.01 in ESE 2.0 mph 11.0 mph 68 % 0.00 in
19:24 90.1 °F 78.1 °F 30.01 in ESE 3.0 mph 10.0 mph 68 % 0.00 in
19:29 90.1 °F 78.1 °F 30.01 in East 4.0 mph 10.0 mph 68 % 0.00 in
19:34 89.8 °F 78.3 °F 30.00 in SE 2.0 mph 9.0 mph 69 % 0.00 in
19:39 89.4 °F 77.9 °F 30.00 in East 5.0 mph 10.0 mph 69 % 0.00 in
19:44 89.2 °F 77.7 °F 30.00 in ESE 3.0 mph 10.0 mph 69 % 0.00 in
19:49 89.1 °F 77.5 °F 30.00 in SE 3.0 mph 10.0 mph 69 % 0.00 in
19:54 88.9 °F 77.4 °F 30.00 in ESE 3.0 mph 8.0 mph 69 % 0.00 in
19:59 88.9 °F 77.9 °F 30.01 in SSE 2.0 mph 8.0 mph 70 % 0.00 in
20:04 88.9 °F 77.9 °F 30.01 in SSE 6.0 mph 8.0 mph 70 % 0.00 in
20:09 88.5 °F 76.6 °F 30.01 in South 3.0 mph 9.0 mph 68 % 0.00 in
20:14 88.2 °F 76.3 °F 30.01 in SE 4.0 mph 9.0 mph 68 % 0.00 in
20:19 87.6 °F 76.1 °F 30.01 in SSW 2.0 mph 9.0 mph 69 % 0.00 in
20:24 87.3 °F 76.3 °F 30.01 in ESE 9.0 mph 9.0 mph 70 % 0.00 in
20:29 86.9 °F 75.9 °F 30.01 in SSE 3.0 mph 9.0 mph 70 % 0.00 in
20:34 86.7 °F 76.1 °F 30.02 in SSE 4.0 mph 9.0 mph 71 % 0.00 in
20:39 86.5 °F 75.9 °F 30.01 in South 5.0 mph 9.0 mph 71 % 0.00 in
20:44 86.4 °F 76.3 °F 30.01 in SE 5.0 mph 8.0 mph 72 % 0.00 in
20:49 86.2 °F 76.1 °F 30.01 in SSW 2.0 mph 8.0 mph 72 % 0.00 in
20:54 86.2 °F 76.1 °F 30.01 in South 3.0 mph 7.0 mph 72 % 0.00 in
20:59 85.8 °F 76.1 °F 30.01 in SE 3.0 mph 7.0 mph 73 % 0.00 in
21:04 85.8 °F 76.1 °F 30.01 in SE 3.0 mph 7.0 mph 73 % 0.00 in
21:09 85.8 °F 76.1 °F 30.02 in SSE 4.0 mph 7.0 mph 73 % 0.00 in
21:14 85.6 °F 76.5 °F 30.02 in SE 2.0 mph 6.0 mph 74 % 0.00 in
21:19 85.8 °F 76.6 °F 30.01 in SSE 4.0 mph 6.0 mph 74 % 0.00 in
21:24 85.6 °F 76.5 °F 30.02 in South 4.0 mph 6.0 mph 74 % 0.00 in
21:29 85.6 °F 76.5 °F 30.02 in SSE 1.0 mph 6.0 mph 74 % 0.00 in
21:34 85.5 °F 76.6 °F 30.02 in ESE 3.0 mph 5.0 mph 75 % 0.00 in
21:39 85.3 °F 76.8 °F 30.02 in South 1.0 mph 5.0 mph 76 % 0.00 in
21:44 85.1 °F 76.6 °F 30.03 in SE 2.0 mph 4.0 mph 76 % 0.00 in
21:49 84.9 °F 76.5 °F 30.03 in South 2.0 mph 4.0 mph 76 % 0.00 in
21:54 84.7 °F 76.6 °F 30.04 in Calm   4.0 mph 77 % 0.00 in
22:00 84.4 °F 76.8 °F 30.04 in Calm   3.0 mph 78 % 0.00 in
22:05 84.4 °F 76.8 °F 30.04 in SSW 1.0 mph 2.0 mph 78 % 0.00 in
22:10 84.4 °F 77.2 °F 30.04 in ESE 1.0 mph 3.0 mph 79 % 0.00 in
22:15 84.4 °F 77.2 °F 30.04 in SSW 2.0 mph 3.0 mph 79 % 0.00 in
22:20 84.4 °F 77.2 °F 30.04 in SSW 2.0 mph 3.0 mph 79 % 0.00 in
22:25 84.2 °F 77.0 °F 30.04 in Calm   3.0 mph 79 % 0.00 in
22:30 84.0 °F 77.2 °F 30.05 in South 2.0 mph 3.0 mph 80 % 0.00 in
22:35 84.0 °F 77.2 °F 30.05 in Calm   3.0 mph 80 % 0.00 in
22:40 83.8 °F 77.4 °F 30.05 in SSW 1.0 mph 3.0 mph 81 % 0.00 in
22:45 83.7 °F 77.2 °F 30.05 in South 1.0 mph 3.0 mph 81 % 0.00 in
22:50 83.5 °F 77.4 °F 30.05 in South 1.0 mph 3.0 mph 82 % 0.00 in
22:55 83.5 °F 77.4 °F 30.06 in Calm   2.0 mph 82 % 0.00 in
23:00 83.3 °F 77.2 °F 30.06 in Calm   2.0 mph 82 % 0.00 in
23:05 83.3 °F 77.5 °F 30.05 in South 2.0 mph 3.0 mph 83 % 0.00 in
23:06 83.3 °F 77.5 °F 30.05 in Calm   3.0 mph 83 % 0.00 in
23:11 83.1 °F 77.4 °F 30.05 in Calm   3.0 mph 83 % 0.00 in
23:16 82.9 °F 77.2 °F 30.06 in Calm   3.0 mph 83 % 0.00 in
23:21 82.9 °F 77.5 °F 30.06 in Calm   3.0 mph 84 % 0.00 in
23:26 82.9 °F 77.5 °F 30.06 in Calm   2.0 mph 84 % 0.00 in
23:31 82.8 °F 77.4 °F 30.06 in ESE 1.0 mph 2.0 mph 84 % 0.00 in
23:37 82.8 °F 77.4 °F 30.06 in Calm   2.0 mph 84 % 0.00 in
23:42 82.9 °F 77.5 °F 30.06 in Calm   2.0 mph 84 % 0.00 in
23:47 82.8 °F 77.4 °F 30.06 in Calm   2.0 mph 84 % 0.00 in
23:52 82.8 °F 77.4 °F 30.06 in Calm   2.0 mph 84 % 0.00 in
23:53 82.6 °F 77.2 °F 30.06 in Calm   2.0 mph 84 % 0.00 in
23:58 82.6 °F 77.5 °F 30.06 in Calm   2.0 mph 85 % 0.00 in
Spring, Texas: Villages of Bridgestone
Compliments of Weather Underground - 2.75 mb

Script developed by  Jim McMurry - jmcmurry@mwt.net Adapted for the template by  Wim van der Kuil - Leuven-Template.eu

You find our weather info also at:

UK Metoffice

WeatherCloud

Weather Underground

Mid-South Weather Network

AWEKAS

Citizen Weather Observer Program (CWOP)

HAMweather, WeatherForYou, PWS Weather

Equipment we use:

Weather-station
Davis Vantage Vue

Weather-program
Meteohub

Weather-server
Debian 7.9 x86 (Guest)

Provider
DreamHost

Davis Vantage Vue

Meteohub

Debian 7.9 x86 (Guest)

DreamHost